Time;durP1;ratioP1;P1;durP2;ratioP2;P2;SDS_P1;SDS_P2;PMS_P1;PMS_P2;Temp;Humidity;BMP_temperature;BMP_pressure;BME280_temperature;BME280_humidity;BME280_pressure;Samples;Min_cycle;Max_cycle;Signal;HPM_P1;HPM_P2
2024/01/17 00:00:01;;;;;;;5.82;3.33;;;13.20;99.90;;;;;;5092365;28;20028;-64
2024/01/17 00:02:26;;;;;;;4.72;3.60;;;13.20;99.90;;;;;;5092916;28;20537;-64
2024/01/17 00:04:54;;;;;;;4.20;3.20;;;13.20;99.90;;;;;;5093116;28;20035;-64
2024/01/17 00:07:24;;;;;;;5.47;3.47;;;13.20;99.90;;;;;;5092719;28;20390;-64
2024/01/17 00:09:50;;;;;;;6.57;3.40;;;13.20;99.90;;;;;;5092483;28;20070;-64
2024/01/17 00:12:16;;;;;;;5.45;3.63;;;13.20;99.90;;;;;;5091118;28;20500;-64
2024/01/17 00:14:42;;;;;;;7.28;3.65;;;13.30;99.90;;;;;;5092203;28;20024;-64
2024/01/17 00:17:08;;;;;;;4.45;3.40;;;13.50;99.90;;;;;;5092946;28;20020;-64
2024/01/17 00:19:34;;;;;;;5.95;3.53;;;13.50;99.90;;;;;;5092416;28;20035;-64
2024/01/17 00:22:01;;;;;;;4.80;3.30;;;13.60;99.90;;;;;;5092436;28;20052;-64
2024/01/17 00:24:26;;;;;;;8.38;3.75;;;13.60;99.90;;;;;;5092322;28;20027;-64
2024/01/17 00:26:52;;;;;;;7.05;3.47;;;13.70;99.90;;;;;;5092282;28;20043;-64
2024/01/17 00:29:19;;;;;;;6.50;3.65;;;13.70;99.90;;;;;;5092431;28;20477;-64
2024/01/17 00:31:45;;;;;;;4.97;3.58;;;13.70;99.90;;;;;;5092308;28;20045;-64
2024/01/17 00:34:10;;;;;;;5.40;3.53;;;13.80;99.90;;;;;;5092282;28;20058;-63
2024/01/17 00:36:36;;;;;;;8.38;3.97;;;13.70;99.90;;;;;;5092682;28;20052;-63
2024/01/17 00:39:02;;;;;;;4.53;3.33;;;13.60;99.90;;;;;;5092066;28;20073;-64
2024/01/17 00:41:27;;;;;;;7.82;3.53;;;13.60;99.90;;;;;;5092126;28;20070;-63
2024/01/17 00:43:53;;;;;;;6.13;3.80;;;13.50;99.90;;;;;;5091695;28;20430;-64
2024/01/17 00:46:19;;;;;;;5.43;3.33;;;13.50;99.90;;;;;;5092319;28;20056;-64
2024/01/17 00:48:44;;;;;;;8.55;4.00;;;13.40;99.90;;;;;;5092302;28;20020;-64
2024/01/17 00:51:10;;;;;;;7.53;3.60;;;13.30;99.90;;;;;;5092131;28;20024;-64
2024/01/17 00:53:36;;;;;;;8.32;3.75;;;13.30;99.90;;;;;;5092335;28;20024;-64
2024/01/17 00:56:01;;;;;;;6.60;3.63;;;13.30;99.90;;;;;;5092232;28;20050;-63
2024/01/17 00:58:28;;;;;;;5.38;3.53;;;13.30;99.90;;;;;;5091769;28;20039;-63
2024/01/17 01:00:53;;;;;;;5.18;3.70;;;13.20;99.90;;;;;;5092079;28;20115;-63
2024/01/17 01:03:19;;;;;;;6.75;4.25;;;13.20;99.90;;;;;;5099964;28;20106;-63
2024/01/17 01:05:46;;;;;;;5.57;3.53;;;13.20;99.90;;;;;;5112311;28;20031;-63
2024/01/17 01:08:12;;;;;;;5.90;3.70;;;13.20;99.90;;;;;;5114788;28;20036;-63
2024/01/17 01:10:38;;;;;;;5.57;3.60;;;13.30;99.90;;;;;;5114654;28;20107;-63
2024/01/17 01:13:04;;;;;;;6.35;3.70;;;13.30;99.90;;;;;;5095130;28;21379;-64
2024/01/17 01:15:29;;;;;;;6.22;3.55;;;13.30;99.90;;;;;;5095007;28;20035;-64
2024/01/17 01:17:55;;;;;;;6.88;3.92;;;13.30;99.90;;;;;;5096149;28;20024;-64
2024/01/17 01:20:20;;;;;;;7.38;3.83;;;13.30;99.90;;;;;;5095879;28;20507;-63
2024/01/17 01:22:46;;;;;;;8.73;3.72;;;13.30;99.90;;;;;;5095683;28;20031;-63
2024/01/17 01:25:12;;;;;;;6.28;3.78;;;13.30;99.90;;;;;;5095964;28;20024;-63
2024/01/17 01:27:37;;;;;;;7.10;3.80;;;13.30;99.90;;;;;;5095781;28;20078;-63
2024/01/17 01:30:03;;;;;;;8.32;3.80;;;13.20;99.90;;;;;;5095848;28;20161;-63
2024/01/17 01:32:29;;;;;;;5.78;3.83;;;13.30;99.90;;;;;;5095712;28;20031;-63
2024/01/17 01:34:55;;;;;;;7.75;4.53;;;13.20;99.90;;;;;;5095557;28;20024;-64
2024/01/17 01:37:20;;;;;;;8.07;3.30;;;13.30;99.90;;;;;;5095524;28;20077;-63
2024/01/17 01:39:46;;;;;;;6.88;3.20;;;13.30;99.90;;;;;;5095823;28;20562;-63
2024/01/17 01:42:13;;;;;;;7.03;3.45;;;13.30;99.90;;;;;;5094910;28;20019;-63
2024/01/17 01:44:39;;;;;;;5.45;3.08;;;13.40;99.90;;;;;;5095420;28;20032;-63
2024/01/17 01:47:07;;;;;;;6.22;3.50;;;13.40;99.90;;;;;;5095115;28;20048;-64
2024/01/17 01:49:33;;;;;;;7.78;3.53;;;13.40;99.90;;;;;;5095236;28;20023;-64
2024/01/17 01:51:59;;;;;;;5.90;3.47;;;13.50;99.90;;;;;;5095603;28;20020;-64
2024/01/17 01:54:26;;;;;;;9.40;3.05;;;13.50;99.90;;;;;;5095254;28;20016;-64
2024/01/17 01:56:54;;;;;;;9.00;3.05;;;13.60;99.90;;;;;;5094878;28;20374;-64
2024/01/17 01:59:20;;;;;;;7.20;3.22;;;13.90;99.90;;;;;;5095217;28;20024;-64
2024/01/17 02:01:47;;;;;;;7.82;3.10;;;14.00;99.90;;;;;;5094980;28;20415;-64
2024/01/17 02:04:15;;;;;;;7.40;3.25;;;14.10;99.90;;;;;;5094808;28;20032;-64
2024/01/17 02:06:43;;;;;;;8.13;2.90;;;14.20;99.90;;;;;;5093843;28;20416;-64
2024/01/17 02:09:09;;;;;;;9.13;3.15;;;14.30;99.90;;;;;;5095265;28;20028;-64
2024/01/17 02:11:36;;;;;;;11.23;3.30;;;14.30;99.90;;;;;;5094588;28;20119;-63
2024/01/17 02:14:01;;;;;;;9.73;3.00;;;14.40;99.90;;;;;;5094657;28;20473;-63
2024/01/17 02:16:28;;;;;;;8.60;3.00;;;14.40;99.90;;;;;;5094725;28;20060;-63
2024/01/17 02:18:54;;;;;;;7.97;2.92;;;14.50;99.90;;;;;;5094120;28;20058;-63
2024/01/17 02:21:19;;;;;;;9.52;3.42;;;14.30;99.90;;;;;;5094246;28;20409;-63
2024/01/17 02:23:52;;;;;;;9.93;3.15;;;14.30;99.90;;;;;;5095212;28;20021;-63
2024/01/17 02:26:19;;;;;;;8.88;3.60;;;14.20;99.90;;;;;;5094280;28;20114;-63
2024/01/17 02:28:44;;;;;;;7.35;3.03;;;14.20;99.90;;;;;;5094399;28;20024;-64
2024/01/17 02:31:11;;;;;;;8.40;3.13;;;14.10;99.90;;;;;;5094604;28;20024;-63
2024/01/17 02:33:38;;;;;;;11.10;3.20;;;14.10;99.90;;;;;;5094426;28;20119;-63
2024/01/17 02:36:04;;;;;;;10.02;3.67;;;14.10;99.90;;;;;;5094724;28;20024;-63
2024/01/17 02:38:29;;;;;;;12.43;3.22;;;14.10;99.90;;;;;;5094357;28;20024;-63
2024/01/17 02:40:55;;;;;;;8.43;3.35;;;14.10;99.90;;;;;;5093804;28;20024;-63
2024/01/17 02:43:21;;;;;;;8.45;3.35;;;14.10;99.90;;;;;;5094236;28;20078;-63
2024/01/17 02:45:46;;;;;;;8.20;3.60;;;14.20;99.90;;;;;;5094020;28;20049;-63
2024/01/17 02:48:12;;;;;;;10.77;3.42;;;14.10;99.90;;;;;;5094587;28;20055;-63
2024/01/17 02:50:39;;;;;;;11.13;3.33;;;14.20;99.90;;;;;;5093939;28;20021;-63
2024/01/17 02:53:06;;;;;;;9.18;3.40;;;14.20;99.90;;;;;;5094128;28;20032;-63
2024/01/17 02:55:32;;;;;;;9.77;3.92;;;14.20;99.90;;;;;;5093703;28;20020;-63
2024/01/17 02:58:00;;;;;;;8.68;3.60;;;14.10;99.90;;;;;;5093945;28;20085;-63
2024/01/17 03:00:26;;;;;;;9.68;3.80;;;14.10;99.90;;;;;;5094230;28;20044;-63
2024/01/17 03:02:51;;;;;;;10.43;3.42;;;14.10;99.90;;;;;;5101768;28;20067;-63
2024/01/17 03:05:17;;;;;;;10.02;3.60;;;14.10;99.90;;;;;;5093197;28;20016;-63
2024/01/17 03:07:43;;;;;;;9.63;3.72;;;14.10;99.90;;;;;;5093469;28;20040;-63
2024/01/17 03:10:11;;;;;;;11.63;3.60;;;14.10;99.90;;;;;;5093673;28;20499;-63
2024/01/17 03:12:37;;;;;;;11.05;3.30;;;14.00;99.90;;;;;;5093739;28;20173;-63
2024/01/17 03:15:03;;;;;;;11.80;3.38;;;14.00;99.90;;;;;;5093734;28;20107;-63
2024/01/17 03:17:29;;;;;;;13.20;3.65;;;14.00;99.90;;;;;;5093695;28;20042;-63
2024/01/17 03:19:54;;;;;;;10.32;3.38;;;14.10;99.90;;;;;;5093276;28;20036;-63
2024/01/17 03:22:20;;;;;;;9.13;3.60;;;14.00;99.90;;;;;;5093810;28;20027;-63
2024/01/17 03:24:46;;;;;;;12.35;4.22;;;14.00;99.90;;;;;;5093232;28;20388;-63
2024/01/17 03:27:15;;;;;;;12.05;3.65;;;14.00;99.90;;;;;;5093460;28;20447;-63
2024/01/17 03:29:40;;;;;;;13.07;3.40;;;14.10;99.90;;;;;;5092830;28;20020;-63
2024/01/17 03:32:07;;;;;;;9.85;3.28;;;14.10;99.90;;;;;;5093411;28;20093;-63
2024/01/17 03:34:33;;;;;;;10.30;3.60;;;14.00;99.90;;;;;;5093356;28;20020;-63
2024/01/17 03:36:58;;;;;;;11.93;3.95;;;14.10;99.90;;;;;;5093190;28;20028;-63
2024/01/17 03:39:24;;;;;;;11.20;3.50;;;14.40;99.90;;;;;;5092968;28;20028;-63
2024/01/17 03:41:50;;;;;;;11.15;3.47;;;14.60;99.90;;;;;;5093083;28;20125;-63
2024/01/17 03:44:15;;;;;;;9.40;3.40;;;14.60;99.90;;;;;;5092811;28;20020;-63
2024/01/17 03:46:41;;;;;;;12.05;3.65;;;14.80;99.90;;;;;;5092747;28;20091;-63
2024/01/17 03:49:06;;;;;;;12.60;3.83;;;14.90;99.90;;;;;;5091608;28;20362;-64
2024/01/17 03:51:32;;;;;;;12.88;3.80;;;14.90;99.90;;;;;;5093051;28;20089;-63
2024/01/17 03:53:58;;;;;;;8.55;3.50;;;14.90;99.90;;;;;;5092317;28;20024;-63
2024/01/17 03:56:23;;;;;;;12.30;3.50;;;14.90;99.90;;;;;;5093088;28;20032;-63
2024/01/17 03:58:49;;;;;;;11.82;3.63;;;14.80;99.90;;;;;;5092839;28;20107;-63
2024/01/17 04:01:15;;;;;;;9.57;3.55;;;14.80;99.90;;;;;;5092826;28;20042;-63
2024/01/17 04:03:40;;;;;;;8.65;3.60;;;14.70;99.90;;;;;;5092658;28;20464;-63
2024/01/17 04:06:06;;;;;;;8.32;3.20;;;14.60;99.90;;;;;;5092524;28;20028;-63
2024/01/17 04:08:32;;;;;;;9.48;3.38;;;14.50;99.90;;;;;;5092888;28;20499;-63
2024/01/17 04:10:58;;;;;;;14.13;4.03;;;14.40;99.90;;;;;;5092714;28;20024;-63
2024/01/17 04:13:23;;;;;;;10.43;3.67;;;14.40;99.90;;;;;;5092560;28;20042;-63
2024/01/17 04:15:49;;;;;;;10.10;3.40;;;14.30;99.90;;;;;;5092597;28;20031;-63
2024/01/17 04:18:16;;;;;;;10.52;3.60;;;14.30;99.90;;;;;;5092276;28;20024;-63
2024/01/17 04:20:42;;;;;;;10.35;3.47;;;14.30;99.90;;;;;;5092653;28;20493;-63
2024/01/17 04:23:10;;;;;;;10.77;3.60;;;14.30;99.90;;;;;;5092414;28;20030;-63
2024/01/17 04:25:36;;;;;;;11.77;3.65;;;14.30;99.90;;;;;;5092298;28;20020;-63
2024/01/17 04:28:06;;;;;;;9.60;3.78;;;14.30;99.90;;;;;;5092402;28;20043;-63
2024/01/17 04:30:32;;;;;;;9.02;3.53;;;14.30;99.90;;;;;;5092260;28;20039;-63
2024/01/17 04:32:57;;;;;;;11.75;3.97;;;14.20;99.90;;;;;;5091914;28;20019;-63
2024/01/17 04:35:23;;;;;;;10.20;3.53;;;14.20;99.90;;;;;;5092028;28;20028;-63
2024/01/17 04:37:48;;;;;;;10.52;3.72;;;14.20;99.90;;;;;;5092186;28;20038;-63
2024/01/17 04:40:15;;;;;;;10.63;3.83;;;14.20;99.90;;;;;;5092283;28;20028;-63
2024/01/17 04:42:41;;;;;;;10.73;3.15;;;14.20;99.90;;;;;;5091577;28;20477;-63
2024/01/17 04:45:07;;;;;;;8.40;3.42;;;14.20;99.90;;;;;;5091975;28;20050;-63
2024/01/17 04:47:33;;;;;;;8.88;3.58;;;14.20;99.90;;;;;;5091794;28;20040;-63
2024/01/17 04:49:58;;;;;;;11.90;3.53;;;14.30;99.90;;;;;;5092174;28;20020;-63
2024/01/17 04:52:24;;;;;;;11.55;3.67;;;14.30;99.90;;;;;;5092022;28;20035;-63
2024/01/17 04:54:50;;;;;;;8.93;3.50;;;14.30;99.90;;;;;;5108588;28;20443;-63
2024/01/17 04:57:16;;;;;;;12.07;3.60;;;14.30;99.90;;;;;;5112303;28;20528;-63
2024/01/17 04:59:42;;;;;;;11.65;3.20;;;14.30;99.90;;;;;;5112679;28;20511;-63
2024/01/17 05:02:08;;;;;;;8.15;3.22;;;14.40;99.90;;;;;;5103149;28;20020;-63
2024/01/17 05:04:37;;;;;;;11.73;3.38;;;14.40;99.90;;;;;;5091678;28;20029;-64
2024/01/17 05:07:03;;;;;;;10.48;3.38;;;14.40;99.90;;;;;;5091981;28;20032;-63
2024/01/17 05:09:28;;;;;;;11.23;3.58;;;14.40;99.90;;;;;;5092302;28;20020;-63
2024/01/17 05:11:57;;;;;;;9.13;3.35;;;14.40;99.90;;;;;;5092050;28;20034;-63
2024/01/17 05:14:23;;;;;;;9.10;2.97;;;14.50;99.90;;;;;;5091433;28;20036;-63
2024/01/17 05:16:48;;;;;;;10.40;3.63;;;14.50;99.90;;;;;;5091961;28;20047;-63
2024/01/17 05:19:16;;;;;;;7.57;3.08;;;14.60;99.90;;;;;;5091823;28;20027;-63
2024/01/17 05:21:41;;;;;;;9.82;3.53;;;14.90;99.90;;;;;;5091923;28;20448;-63
2024/01/17 05:24:07;;;;;;;10.38;2.80;;;15.20;99.90;;;;;;5091620;28;20063;-63
2024/01/17 05:26:32;;;;;;;8.27;2.67;;;15.30;99.90;;;;;;5092081;28;20409;-63
2024/01/17 05:28:58;;;;;;;8.80;2.90;;;15.30;99.90;;;;;;5091486;28;20111;-63
2024/01/17 05:31:24;;;;;;;9.10;2.90;;;15.30;99.90;;;;;;5091788;28;20387;-63
2024/01/17 05:33:49;;;;;;;8.68;3.00;;;15.40;99.90;;;;;;5091442;28;20515;-63
2024/01/17 05:36:15;;;;;;;7.05;2.78;;;15.50;99.90;;;;;;5091666;28;20031;-63
2024/01/17 05:38:41;;;;;;;6.45;2.70;;;15.50;99.90;;;;;;5091587;28;20024;-63
2024/01/17 05:41:06;;;;;;;7.97;2.80;;;15.50;99.90;;;;;;5091914;28;20020;-63
2024/01/17 05:43:32;;;;;;;9.50;2.65;;;15.50;99.90;;;;;;5091258;28;20082;-63
2024/01/17 05:45:57;;;;;;;9.82;2.22;;;15.30;99.90;;;;;;5091408;28;20049;-63
2024/01/17 05:48:26;;;;;;;8.07;2.50;;;15.10;99.90;;;;;;5091025;28;20450;-63
2024/01/17 05:50:52;;;;;;;4.03;2.03;;;15.00;99.90;;;;;;5091890;28;20024;-63
2024/01/17 05:53:18;;;;;;;6.43;2.53;;;14.90;99.90;;;;;;5091733;28;20027;-63
2024/01/17 05:55:44;;;;;;;7.22;2.28;;;14.90;99.90;;;;;;5095368;28;20020;-64
2024/01/17 05:58:10;;;;;;;7.50;2.50;;;14.90;99.90;;;;;;5094709;28;20441;-63
2024/01/17 06:00:35;;;;;;;7.45;2.53;;;14.90;99.90;;;;;;5095394;28;20108;-63
2024/01/17 06:03:01;;;;;;;6.72;2.22;;;14.90;99.90;;;;;;5094760;28;20107;-63
2024/01/17 06:05:27;;;;;;;4.80;2.10;;;14.90;99.90;;;;;;5095035;28;20058;-63
2024/01/17 06:07:52;;;;;;;6.47;2.60;;;14.90;99.90;;;;;;5095400;28;20218;-64
2024/01/17 06:10:18;;;;;;;3.05;1.80;;;14.90;99.90;;;;;;5095170;28;20598;-63
2024/01/17 06:12:44;;;;;;;8.38;2.30;;;14.90;99.90;;;;;;5094526;28;20039;-63
2024/01/17 06:15:11;;;;;;;8.65;2.10;;;14.90;99.90;;;;;;5095301;28;20021;-63
2024/01/17 06:17:37;;;;;;;5.07;2.17;;;14.90;99.90;;;;;;5094162;28;20103;-64
2024/01/17 06:20:03;;;;;;;6.65;2.22;;;14.90;99.90;;;;;;5094439;28;20115;-63
2024/01/17 06:22:29;;;;;;;4.05;2.00;;;14.90;99.90;;;;;;5095007;28;20115;-63
2024/01/17 06:24:55;;;;;;;5.38;2.20;;;14.90;99.90;;;;;;5094696;28;20112;-63
2024/01/17 06:27:20;;;;;;;6.35;2.10;;;14.90;99.90;;;;;;5094533;28;20043;-64
2024/01/17 06:29:46;;;;;;;3.45;1.75;;;14.90;99.90;;;;;;5094568;28;20020;-64
2024/01/17 06:32:13;;;;;;;3.55;1.83;;;15.00;99.90;;;;;;5094401;28;20085;-64
2024/01/17 06:34:39;;;;;;;3.88;1.67;;;15.00;99.90;;;;;;5094414;28;20020;-63
2024/01/17 06:37:05;;;;;;;4.43;1.85;;;15.00;99.90;;;;;;5094365;28;20032;-64
2024/01/17 06:39:32;;;;;;;6.45;1.92;;;15.00;99.90;;;;;;5094361;28;20028;-63
2024/01/17 06:41:58;;;;;;;3.75;1.80;;;15.00;99.90;;;;;;5093867;28;20036;-64
2024/01/17 06:44:25;;;;;;;4.25;1.90;;;15.00;99.90;;;;;;5094260;28;20024;-64
2024/01/17 06:46:50;;;;;;;4.65;1.80;;;15.00;99.90;;;;;;5094042;28;20040;-64
2024/01/17 06:49:16;;;;;;;5.35;1.92;;;15.00;99.90;;;;;;5094112;28;20473;-64
2024/01/17 06:51:42;;;;;;;3.78;1.65;;;15.00;99.90;;;;;;5094173;28;20020;-64
2024/01/17 06:54:09;;;;;;;6.18;1.80;;;15.00;99.90;;;;;;5093959;28;20099;-64
2024/01/17 06:56:36;;;;;;;4.50;1.80;;;15.00;99.90;;;;;;5093850;28;20028;-64
2024/01/17 06:59:02;;;;;;;3.95;1.80;;;15.30;99.90;;;;;;5094413;28;20020;-64
2024/01/17 07:01:28;;;;;;;3.65;1.40;;;15.50;99.90;;;;;;5093633;28;20099;-64
2024/01/17 07:03:53;;;;;;;3.67;1.70;;;15.60;99.90;;;;;;5109305;28;20170;-64
2024/01/17 07:06:19;;;;;;;6.90;1.67;;;15.60;99.90;;;;;;5093618;28;20042;-63
2024/01/17 07:08:44;;;;;;;3.70;1.80;;;15.70;99.90;;;;;;5093947;28;20034;-64
2024/01/17 07:11:10;;;;;;;4.13;1.75;;;15.80;99.90;;;;;;5093272;28;20024;-64
2024/01/17 07:13:38;;;;;;;2.50;1.77;;;15.90;99.90;;;;;;5093168;28;20028;-64
2024/01/17 07:16:04;;;;;;;4.43;1.58;;;15.80;99.90;;;;;;5093112;28;20051;-64
2024/01/17 07:18:29;;;;;;;3.92;1.67;;;15.90;99.90;;;;;;5093694;28;20050;-63
2024/01/17 07:20:55;;;;;;;3.35;1.70;;;15.90;99.90;;;;;;5094012;28;20473;-64
2024/01/17 07:23:21;;;;;;;4.35;1.75;;;15.70;99.90;;;;;;5093500;28;20480;-64
2024/01/17 07:25:47;;;;;;;3.38;1.65;;;15.50;99.90;;;;;;5093114;28;20034;-64
2024/01/17 07:28:14;;;;;;;3.95;1.70;;;15.30;99.90;;;;;;5093333;28;20107;-63
2024/01/17 07:30:41;;;;;;;6.28;1.85;;;15.30;99.90;;;;;;5092924;28;20112;-64
2024/01/17 07:33:07;;;;;;;3.80;1.42;;;15.20;99.90;;;;;;5093339;28;20039;-64
2024/01/17 07:35:33;;;;;;;4.07;1.63;;;15.20;99.90;;;;;;5093650;28;20036;-64
2024/01/17 07:37:59;;;;;;;3.25;1.73;;;15.10;99.90;;;;;;5093216;28;20500;-66
2024/01/17 07:40:25;;;;;;;4.10;1.50;;;15.10;99.90;;;;;;5092966;28;20032;-66
2024/01/17 07:42:51;;;;;;;3.90;1.80;;;15.10;99.90;;;;;;5090650;28;20384;-66
2024/01/17 07:45:17;;;;;;;5.15;1.67;;;15.10;99.90;;;;;;5092347;28;20034;-66
2024/01/17 07:47:43;;;;;;;2.63;1.60;;;15.10;99.90;;;;;;5092838;28;20036;-66
2024/01/17 07:50:11;;;;;;;4.03;1.95;;;15.10;99.90;;;;;;5093365;28;20467;-66
2024/01/17 07:52:38;;;;;;;3.88;1.60;;;15.10;99.90;;;;;;5091179;28;20089;-66
2024/01/17 07:55:04;;;;;;;3.22;1.38;;;15.10;99.90;;;;;;5090144;28;20040;-66
2024/01/17 07:57:30;;;;;;;4.55;1.50;;;15.10;99.90;;;;;;5089576;28;20489;-66
2024/01/17 07:59:56;;;;;;;2.80;1.50;;;15.10;99.90;;;;;;5072055;28;20071;-66
2024/01/17 08:02:22;;;;;;;3.28;1.77;;;15.10;99.90;;;;;;5072828;28;20489;-66
2024/01/17 08:04:52;;;;;;;3.08;1.60;;;15.20;99.90;;;;;;5080570;28;20060;-66
2024/01/17 08:07:18;;;;;;;3.42;1.80;;;15.10;99.90;;;;;;5092696;28;20079;-65
2024/01/17 08:09:43;;;;;;;2.42;1.55;;;15.20;99.90;;;;;;5084401;28;20055;-66
2024/01/17 08:12:09;;;;;;;4.55;1.65;;;15.20;99.90;;;;;;5080241;28;20515;-66
2024/01/17 08:14:35;;;;;;;4.55;1.60;;;15.20;99.90;;;;;;5092745;28;20555;-66
2024/01/17 08:17:01;;;;;;;5.05;1.67;;;15.20;99.90;;;;;;5092254;28;20086;-66
2024/01/17 08:19:27;;;;;;;2.53;1.67;;;15.30;99.90;;;;;;5092488;28;20076;-66
2024/01/17 08:21:53;;;;;;;3.47;1.60;;;15.30;99.90;;;;;;5092609;28;20511;-66
2024/01/17 08:24:19;;;;;;;2.78;1.50;;;15.30;99.90;;;;;;5092527;28;20020;-66
2024/01/17 08:26:45;;;;;;;5.72;1.70;;;15.40;99.90;;;;;;5092349;28;20120;-67
2024/01/17 08:29:12;;;;;;;4.00;1.60;;;15.40;99.90;;;;;;5091896;28;20096;-66
2024/01/17 08:31:38;;;;;;;3.78;1.88;;;15.40;99.90;;;;;;5092340;28;20032;-66
2024/01/17 08:34:03;;;;;;;4.80;2.30;;;15.40;99.90;;;;;;5092341;28;20027;-66
2024/01/17 08:36:30;;;;;;;4.13;1.90;;;15.50;99.90;;;;;;5090975;28;20032;-65
2024/01/17 08:38:57;;;;;;;4.00;1.92;;;15.70;99.90;;;;;;5086160;28;20028;-65
2024/01/17 08:41:22;;;;;;;3.38;1.80;;;16.10;99.90;;;;;;5084102;28;20420;-65
2024/01/17 08:43:48;;;;;;;3.72;2.05;;;16.30;99.90;;;;;;5091598;28;20024;-65
2024/01/17 08:46:14;;;;;;;4.18;2.60;;;16.40;99.90;;;;;;5091783;28;20056;-65
2024/01/17 08:48:40;;;;;;;2.28;1.50;;;16.40;99.90;;;;;;5092163;28;20032;-66
2024/01/17 08:51:11;;;;;;;3.65;1.40;;;16.40;99.90;;;;;;5092154;28;20495;-66
2024/01/17 08:53:38;;;;;;;3.40;1.58;;;16.50;99.90;;;;;;5092478;28;20106;-66
2024/01/17 08:56:05;;;;;;;3.78;1.60;;;16.50;99.90;;;;;;5092041;28;20024;-67
2024/01/17 08:58:31;;;;;;;10.77;2.15;;;16.60;99.90;;;;;;5091774;28;20528;-67
2024/01/17 09:00:57;;;;;;;4.35;1.40;;;16.70;99.90;;;;;;5091847;28;20016;-66
2024/01/17 09:03:23;;;;;;;5.43;1.60;;;16.50;99.90;;;;;;5093114;28;20028;-66
2024/01/17 09:05:49;;;;;;;4.07;1.45;;;16.20;99.90;;;;;;5112217;28;20016;-67
2024/01/17 09:08:14;;;;;;;2.33;1.35;;;16.10;99.90;;;;;;5099585;28;20043;-67
2024/01/17 09:10:40;;;;;;;5.72;1.50;;;16.00;99.90;;;;;;5091760;28;20406;-66
2024/01/17 09:13:06;;;;;;;3.15;1.42;;;16.00;99.90;;;;;;5092048;28;20032;-66
2024/01/17 09:15:32;;;;;;;4.38;1.88;;;16.00;99.90;;;;;;5091867;28;20027;-67
2024/01/17 09:17:58;;;;;;;2.63;1.27;;;15.90;99.90;;;;;;5091476;28;20028;-66
2024/01/17 09:20:24;;;;;;;5.47;2.15;;;15.90;99.90;;;;;;5091788;28;20029;-67
2024/01/17 09:22:50;;;;;;;2.70;1.60;;;15.90;99.90;;;;;;5091772;28;20036;-66
2024/01/17 09:25:17;;;;;;;3.17;1.50;;;15.90;99.90;;;;;;5091880;28;20023;-65
2024/01/17 09:27:43;;;;;;;2.63;1.30;;;15.80;99.90;;;;;;5091681;28;20499;-67
2024/01/17 09:30:09;;;;;;;2.35;1.40;;;15.80;99.90;;;;;;5095308;28;20031;-66
2024/01/17 09:32:35;;;;;;;3.88;1.50;;;15.80;99.90;;;;;;5095541;28;20019;-66
2024/01/17 09:35:01;;;;;;;2.17;1.40;;;15.80;99.90;;;;;;5095961;28;20488;-66
2024/01/17 09:37:27;;;;;;;2.65;1.42;;;15.80;99.90;;;;;;5095447;28;20024;-65
2024/01/17 09:39:53;;;;;;;4.50;1.77;;;15.80;99.90;;;;;;5095686;28;20101;-66
2024/01/17 09:42:20;;;;;;;5.43;1.77;;;15.90;99.90;;;;;;5095940;28;20046;-66
2024/01/17 09:44:47;;;;;;;3.83;1.60;;;15.90;99.90;;;;;;5077323;28;20085;-66
2024/01/17 09:47:17;;;;;;;3.40;1.60;;;15.90;99.90;;;;;;5095328;28;20581;-66
2024/01/17 09:49:43;;;;;;;4.55;1.73;;;15.90;99.90;;;;;;5095409;28;20032;-65
2024/01/17 09:52:11;;;;;;;2.70;1.60;;;15.90;99.90;;;;;;5095476;28;20035;-65
2024/01/17 09:54:40;;;;;;;4.15;1.77;;;15.80;99.90;;;;;;5094628;28;20135;-66
2024/01/17 09:57:09;;;;;;;4.95;2.20;;;15.80;99.90;;;;;;5095261;28;20031;-66
2024/01/17 09:59:45;;;;;;;4.30;1.80;;;15.80;99.90;;;;;;5095122;28;20121;-67
2024/01/17 10:02:12;;;;;;;4.30;2.10;;;15.80;99.90;;;;;;5095195;28;20074;-67
2024/01/17 10:04:41;;;;;;;5.15;2.00;;;15.80;99.90;;;;;;5095127;28;20421;-67
2024/01/17 10:07:07;;;;;;;5.05;1.92;;;15.80;99.90;;;;;;5094161;28;20071;-68
2024/01/17 10:09:33;;;;;;;5.25;1.90;;;15.80;99.90;;;;;;5094577;28;20020;-67
2024/01/17 10:11:59;;;;;;;6.28;2.08;;;15.80;99.90;;;;;;5095417;28;20031;-67
2024/01/17 10:14:25;;;;;;;49.47;8.02;;;16.10;99.90;;;;;;5094889;28;20507;-67
2024/01/17 10:16:51;;;;;;;8.77;2.78;;;16.40;99.90;;;;;;5086287;28;20034;-66
2024/01/17 10:19:18;;;;;;;4.75;2.20;;;16.40;99.90;;;;;;5085382;28;20374;-67
2024/01/17 10:21:43;;;;;;;3.63;1.73;;;16.60;99.90;;;;;;5095075;28;20055;-66
2024/01/17 10:24:10;;;;;;;5.70;2.03;;;16.70;99.90;;;;;;5093496;28;20121;-67
2024/01/17 10:26:40;;;;;;;8.13;2.10;;;16.80;99.90;;;;;;5094420;28;20092;-68
2024/01/17 10:29:07;;;;;;;4.82;2.00;;;16.80;99.90;;;;;;5094499;28;20392;-67
2024/01/17 10:31:33;;;;;;;4.90;1.80;;;16.80;99.90;;;;;;5094540;28;20031;-67
2024/01/17 10:33:59;;;;;;;4.45;2.10;;;16.90;99.90;;;;;;5092981;28;20031;-67
2024/01/17 10:36:25;;;;;;;6.47;2.00;;;16.90;99.90;;;;;;5094842;28;20401;-66
2024/01/17 10:38:50;;;;;;;5.28;2.17;;;16.70;99.90;;;;;;5091763;28;20020;-68
2024/01/17 10:41:16;;;;;;;5.30;1.92;;;16.60;99.90;;;;;;5084276;28;20032;-67
2024/01/17 10:43:56;;;;;;;4.60;2.13;;;16.40;99.90;;;;;;5075300;28;20439;-66
2024/01/17 10:46:23;;;;;;;4.65;1.90;;;16.30;99.90;;;;;;5092943;28;20048;-66
2024/01/17 10:48:49;;;;;;;6.43;2.13;;;16.30;99.90;;;;;;5087566;28;20565;-67
2024/01/17 10:51:20;;;;;;;5.28;2.10;;;16.30;99.90;;;;;;5090290;28;20082;-66
2024/01/17 10:53:48;;;;;;;6.88;2.22;;;16.30;99.90;;;;;;5092888;28;20028;-66
2024/01/17 10:56:20;;;;;;;8.60;2.40;;;16.40;99.90;;;;;;5094037;28;20024;-66
2024/01/17 10:58:55;;;;;;;8.98;2.90;;;16.40;99.90;;;;;;5086984;28;20024;-68
2024/01/17 11:01:35;;;;;;;10.02;2.95;;;16.30;99.90;;;;;;5088174;28;20561;-66
2024/01/17 11:04:23;;;;;;;10.27;2.90;;;16.30;99.90;;;;;;5091502;28;20081;-66
2024/01/17 11:06:49;;;;;;;10.50;3.08;;;16.20;99.90;;;;;;5073510;28;20516;-66
2024/01/17 11:09:16;;;;;;;13.38;3.38;;;16.20;99.90;;;;;;5073533;28;20030;-67
2024/01/17 11:11:42;;;;;;;16.17;4.47;;;16.10;99.90;;;;;;5073583;28;20546;-67
2024/01/17 11:14:09;;;;;;;14.80;4.13;;;16.10;99.90;;;;;;5079120;28;20069;-67
2024/01/17 11:16:36;;;;;;;17.58;5.72;;;16.10;99.90;;;;;;5093766;28;20024;-67
2024/01/17 11:19:03;;;;;;;15.10;4.32;;;16.10;99.90;;;;;;5093408;28;20099;-67
2024/01/17 11:21:31;;;;;;;16.40;4.03;;;16.00;99.90;;;;;;5093290;28;20016;-67
2024/01/17 11:24:01;;;;;;;17.08;4.25;;;16.10;99.90;;;;;;5093347;28;20604;-66
2024/01/17 11:26:35;;;;;;;12.48;3.70;;;16.00;99.90;;;;;;5093163;28;20115;-67
2024/01/17 11:29:22;;;;;;;15.98;3.97;;;16.00;99.90;;;;;;5093441;28;20107;-67
2024/01/17 11:32:41;;;;;;;14.63;3.70;;;16.00;99.90;;;;;;5091582;28;20041;-67
2024/01/17 11:35:06;;;;;;;15.57;4.00;;;16.00;99.90;;;;;;5093445;28;20150;-67
2024/01/17 11:37:33;;;;;;;14.75;3.22;;;16.00;99.90;;;;;;5094978;28;20035;-67
2024/01/17 11:40:03;;;;;;;13.20;3.38;;;16.00;99.90;;;;;;5093646;28;20035;-67
2024/01/17 11:42:29;;;;;;;13.73;3.42;;;16.00;99.90;;;;;;5092130;28;20093;-67
2024/01/17 11:44:55;;;;;;;17.17;3.70;;;16.00;99.90;;;;;;5093252;28;20020;-67
2024/01/17 11:47:21;;;;;;;12.00;3.05;;;16.00;99.90;;;;;;5092561;28;20051;-67
2024/01/17 11:49:47;;;;;;;10.20;2.63;;;16.10;99.90;;;;;;5093083;28;20063;-67
2024/01/17 11:52:34;;;;;;;8.02;2.70;;;16.30;99.90;;;;;;5091813;28;20400;-67
2024/01/17 11:55:00;;;;;;;8.00;2.30;;;16.40;99.90;;;;;;5090956;28;20397;-66
2024/01/17 11:57:28;;;;;;;8.80;2.38;;;16.60;99.90;;;;;;5092968;28;20016;-67
2024/01/17 12:00:04;;;;;;;7.28;1.80;;;16.60;99.90;;;;;;5092948;28;20028;-67
2024/01/17 12:02:41;;;;;;;5.65;2.05;;;16.60;99.90;;;;;;5093230;28;20429;-67
2024/01/17 12:05:07;;;;;;;7.13;1.90;;;16.60;99.90;;;;;;5092335;28;20481;-67
2024/01/17 12:07:46;;;;;;;6.65;1.90;;;16.70;99.90;;;;;;5091452;28;20040;-66
2024/01/17 12:10:13;;;;;;;8.45;2.85;;;16.80;99.90;;;;;;5092741;28;20101;-66
2024/01/17 12:12:43;;;;;;;9.02;2.97;;;16.80;99.90;;;;;;5092719;28;20031;-66
2024/01/17 12:15:10;;;;;;;6.07;2.03;;;16.70;99.90;;;;;;5092272;28;20469;-66
2024/01/17 12:17:38;;;;;;;6.50;2.08;;;16.50;99.90;;;;;;5092611;28;20503;-66
2024/01/17 12:20:11;;;;;;;5.20;2.17;;;16.30;99.90;;;;;;5092441;28;20028;-66
2024/01/17 12:22:37;;;;;;;;;;;16.30;99.90;;;;;;5092857;28;20048;-66
2024/01/17 12:25:03;;;;;;;8.23;2.45;;;16.20;99.90;;;;;;5092315;28;19958;-67
2024/01/17 12:27:31;;;;;;;5.50;1.98;;;16.20;99.90;;;;;;5088076;28;20032;-67
2024/01/17 12:30:07;;;;;;;7.18;2.13;;;16.20;99.90;;;;;;5090361;28;20469;-66
2024/01/17 12:32:36;;;;;;;7.20;2.50;;;16.10;99.90;;;;;;5092361;28;20488;-66
2024/01/17 12:35:03;;;;;;;8.48;2.47;;;16.10;99.90;;;;;;5091890;28;20016;-67
2024/01/17 12:37:29;;;;;;;7.07;2.08;;;16.10;99.90;;;;;;5092638;28;20024;-68
2024/01/17 12:39:57;;;;;;;6.85;2.28;;;16.20;99.90;;;;;;5092237;28;20078;-68
2024/01/17 12:42:23;;;;;;;7.38;2.00;;;16.20;99.90;;;;;;5092134;28;20024;-68